Terminal Aerodrome Forecast
Issued by NWS

Home | Current Version | Previous Version | Text Only | Print | Product List | Glossary On
Versions: 1 2 3 4 5 6 7 8 9 10 11 12 13 14 15 16 17
000
FTUS42 KTAE 020528
TAFDHN
TAF
KDHN 020528Z 0206/0306 26006KT P6SM SCT250
     FM021700 27010KT P6SM VCTS SCT040CB
     FM030000 22008KT P6SM OVC250=

USA.gov is the U.S. government's official web portal to all federal, state and local government web resources and services.